KSDM

Details ICAO KSDM (SDM)
Name BROWN FLD MUNI
Region United States
Timezone America/Los_Angeles (UTC-8.0)
Plans Departing 29
Arriving 16
Stats Elevation 526 ft / 160 m (AMSL)
Location 32.571917° -116.979915°
Runways 2
Magnetic Variation 11.451° E
Sunrise 2017-12-12 14:42:04 UTC / 2017-12-12 06:42:04 Local
Sunset 2017-12-13 00:44:24 UTC / 2017-12-12 16:44:24 Local
Advertisement - Login to hide

Runways

ID Width Length Bearing (true) Bearing (mag) Surface Threshold Offset Overrun Length
08L 151 ft / 46 m 7,957 ft / 2,425 m 95.59° 84.14° Asphalt 0 ft / 0 m 0 ft / 0 m
08R 75 ft / 23 m 3,158 ft / 963 m 95.70° 84.25° Asphalt 0 ft / 0 m 0 ft / 0 m
26L 75 ft / 23 m 3,158 ft / 963 m 275.70° 264.25° Asphalt 0 ft / 0 m 1,706 ft / 520 m
26R 151 ft / 46 m 7,957 ft / 2,425 m 275.61° 264.16° Asphalt 0 ft / 0 m 0 ft / 0 m

Map

Weather


0- 5 10 15 20 25 30 35+ Temperature / ° C

Clouds and Precipitation
Forecast for 2017-12-13 00:00 UTC. Updated 18 minutes ago

Ground ~20,000 ft ~40,000 ft Winds

METAR

KSDM 122253Z 29007KT 10SM CLR 27/M14 A3003 RMK AO2 SLP166 T02721144

TAF

Not found

Frequencies

Recorded 132.35 MHz ATIS
Unicom 122.95 MHz UNICOM
Ground 124.40 MHz GND
Tower 128.25 MHz TWR
Departure 125.15 MHz SOCAL DEP
Unicom 126.50 MHz CTAF
Clearance 124.40 MHz CLNC DEL
Tower 126.50 MHz TWR
Approach 124.35 MHz SOCAL APP
Warning: Do not use this data for real-world aviation or navigation. No guarantee of current accuracy is given.